Time;durP1;ratioP1;P1;durP2;ratioP2;P2;SDS_P1;SDS_P2;PMS_P1;PMS_P2;Temp;Humidity;BMP_temperature;BMP_pressure;BME280_temperature;BME280_humidity;BME280_pressure;Samples;Min_cycle;Max_cycle;Signal;HPM_P1;HPM_P2
2022/12/12 00:02:24;;;;;;;9.60;8.70;;;15.10;51.60;16.20;100202.00;;;;5068380;28;20261;-42
2022/12/12 00:04:50;;;;;;;10.17;9.17;;;15.10;51.70;16.20;100200.00;;;;5053759;28;20267;-42
2022/12/12 00:07:16;;;;;;;9.77;8.63;;;15.10;51.70;16.20;100208.00;;;;5077095;28;20181;-41
2022/12/12 00:09:42;;;;;;;9.70;8.70;;;15.00;51.60;16.10;100209.00;;;;5069648;28;20189;-42
2022/12/12 00:12:07;;;;;;;9.83;8.83;;;15.00;51.60;16.10;100208.00;;;;5068408;28;20173;-42
2022/12/12 00:14:33;;;;;;;9.40;8.40;;;15.00;51.70;16.10;100214.00;;;;5068704;28;20185;-43
2022/12/12 00:16:59;;;;;;;9.73;8.83;;;15.00;51.70;16.10;100208.00;;;;5068450;28;20190;-42
2022/12/12 00:19:24;;;;;;;9.83;8.83;;;15.00;51.80;16.10;100213.00;;;;5068879;28;20198;-41
2022/12/12 00:21:50;;;;;;;8.97;8.17;;;14.90;51.80;16.00;100212.00;;;;5068885;28;20230;-42
2022/12/12 00:24:16;;;;;;;9.27;8.37;;;14.90;51.80;16.00;100212.00;;;;5069179;28;20319;-42
2022/12/12 00:26:42;;;;;;;9.20;8.30;;;14.90;51.80;16.00;100214.00;;;;5068480;28;20245;-41
2022/12/12 00:29:09;;;;;;;8.80;8.00;;;14.90;51.80;16.00;100216.00;;;;5068997;28;20185;-43
2022/12/12 00:31:34;;;;;;;9.37;8.47;;;14.90;51.80;16.00;100217.00;;;;5071837;28;20218;-42
2022/12/12 00:34:00;;;;;;;8.80;8.00;;;14.80;51.70;16.00;100226.00;;;;5071938;28;20371;-41
2022/12/12 00:36:28;;;;;;;8.83;7.97;;;14.80;51.70;16.00;100223.00;;;;5068840;28;20256;-42
2022/12/12 00:38:54;;;;;;;9.00;8.10;;;14.80;51.70;16.00;100227.00;;;;5050322;28;20351;-42
2022/12/12 00:41:20;;;;;;;9.13;8.27;;;14.80;51.70;15.90;100223.00;;;;5067682;28;20498;-42
2022/12/12 00:43:46;;;;;;;8.23;7.43;;;14.80;52.50;15.90;100213.00;;;;5050237;28;20201;-42
2022/12/12 00:46:14;;;;;;;8.83;8.03;;;14.80;51.90;15.90;100210.00;;;;5050077;28;20676;-41
2022/12/12 00:48:40;;;;;;;8.60;7.80;;;14.70;51.90;15.90;100224.00;;;;5068072;28;20194;-42
2022/12/12 00:51:08;;;;;;;9.33;8.37;;;14.70;51.90;15.80;100227.00;;;;5067771;28;20181;-42
2022/12/12 00:53:34;;;;;;;9.50;8.60;;;14.70;52.00;15.80;100214.00;;;;5050128;28;20638;-42
2022/12/12 00:56:00;;;;;;;9.00;8.20;;;14.70;51.90;15.80;100221.00;;;;5049837;28;20248;-41
2022/12/12 00:58:26;;;;;;;8.70;7.80;;;14.70;51.90;15.80;100227.00;;;;5068186;28;20611;-42
2022/12/12 01:00:52;;;;;;;8.77;7.97;;;14.60;51.80;15.80;100226.00;;;;5067766;28;20256;-42
2022/12/12 01:03:18;;;;;;;8.30;7.50;;;14.60;51.90;15.70;100239.00;;;;5067609;28;20260;-43
2022/12/12 01:05:43;;;;;;;8.87;8.07;;;14.60;51.90;15.70;100232.00;;;;5067879;28;20173;-41
2022/12/12 01:08:09;;;;;;;8.73;7.93;;;14.60;51.90;15.70;100226.00;;;;5067854;28;20548;-43
2022/12/12 01:10:35;;;;;;;8.67;7.87;;;14.60;51.90;15.70;100238.00;;;;5049968;28;20165;-42
2022/12/12 01:13:01;;;;;;;8.63;7.77;;;14.60;52.00;15.70;100235.00;;;;5050026;28;20545;-43
2022/12/12 01:15:26;;;;;;;8.70;7.90;;;14.60;52.10;15.70;100229.00;;;;5067701;28;20170;-41
2022/12/12 01:17:52;;;;;;;9.20;8.30;;;14.50;52.00;15.60;100235.00;;;;5050153;28;20252;-41
2022/12/12 01:20:24;;;;;;;8.40;7.67;;;14.50;52.10;15.60;100236.00;;;;5068142;28;20176;-40
2022/12/12 01:22:50;;;;;;;8.53;7.73;;;14.50;52.20;15.60;100244.00;;;;5067349;28;20318;-42
2022/12/12 01:25:16;;;;;;;9.23;8.30;;;14.50;52.00;15.50;100243.00;;;;5067903;28;20177;-42
2022/12/12 01:27:42;;;;;;;8.47;7.67;;;14.50;52.20;15.60;100236.00;;;;5067738;28;20257;-46
2022/12/12 01:30:10;;;;;;;8.37;7.63;;;14.40;52.10;15.60;100250.00;;;;5067451;28;20272;-41
2022/12/12 01:32:36;;;;;;;9.17;8.27;;;14.50;52.10;15.50;100248.00;;;;5049827;28;20545;-42
2022/12/12 01:35:06;;;;;;;8.53;7.73;;;14.40;51.80;15.50;100252.00;;;;5067397;28;20246;-42
2022/12/12 01:37:31;;;;;;;8.90;8.10;;;14.30;51.70;15.50;100254.00;;;;5067283;28;20174;-41
2022/12/12 01:39:57;;;;;;;8.73;7.93;;;14.30;51.70;15.50;100255.00;;;;5049288;28;20281;-41
2022/12/12 01:42:23;;;;;;;8.53;7.73;;;14.30;51.70;15.50;100257.00;;;;5032753;28;20185;-42
2022/12/12 01:44:50;;;;;;;9.17;8.27;;;14.40;51.80;15.40;100261.00;;;;5067147;28;20272;-41
2022/12/12 01:47:18;;;;;;;9.27;8.40;;;14.30;51.80;15.40;100251.00;;;;5068024;28;20174;-41
2022/12/12 01:49:50;;;;;;;9.07;8.27;;;14.30;51.80;15.40;100249.00;;;;5067134;28;20200;-41
2022/12/12 01:52:20;;;;;;;8.97;8.07;;;14.30;52.10;15.40;100245.00;;;;5049860;28;20161;-42
2022/12/12 01:54:49;;;;;;;8.70;7.90;;;14.30;52.10;15.40;100256.00;;;;5049863;28;20170;-41
2022/12/12 01:57:19;;;;;;;8.80;8.00;;;14.30;52.10;15.30;100251.00;;;;5033403;28;20586;-41
2022/12/12 01:59:45;;;;;;;9.10;8.20;;;14.20;52.00;15.40;100261.00;;;;5033099;28;20276;-41
2022/12/12 02:02:11;;;;;;;8.60;7.80;;;14.20;51.90;15.30;100248.00;;;;5016258;28;20340;-43
2022/12/12 02:04:36;;;;;;;8.33;7.53;;;14.20;52.00;15.30;100253.00;;;;5033195;28;20213;-41
2022/12/12 02:07:02;;;;;;;8.67;7.87;;;14.20;52.00;15.30;100254.00;;;;5033049;28;20210;-41
2022/12/12 02:09:28;;;;;;;9.30;8.40;;;14.30;52.00;15.30;100266.00;;;;5070458;28;20197;-41
2022/12/12 02:11:55;;;;;;;8.93;8.13;;;14.20;52.00;15.20;100268.00;;;;5052693;28;20675;-42
2022/12/12 02:14:37;;;;;;;8.57;7.73;;;14.10;51.90;15.30;100258.00;;;;5070891;28;20257;-42
2022/12/12 02:17:26;;;;;;;8.90;8.10;;;14.10;51.90;15.30;100267.00;;;;5052871;28;20256;-41
2022/12/12 02:20:31;;;;;;;9.37;8.47;;;14.10;51.90;15.30;100256.00;;;;5037284;28;20196;-40
2022/12/12 02:23:29;;;;;;;8.70;7.87;;;14.10;51.90;15.20;100260.00;;;;5053178;28;20339;-42
2022/12/12 02:26:28;;;;;;;8.70;7.87;;;14.10;51.90;15.20;100258.00;;;;5055426;28;20177;-41
2022/12/12 02:29:25;;;;;;;8.20;7.40;;;14.10;52.00;15.20;100251.00;;;;5024866;28;20188;-42
2022/12/12 02:32:12;;;;;;;8.57;7.77;;;14.10;52.10;15.10;100257.00;;;;5070361;28;20150;-42
2022/12/12 02:34:48;;;;;;;8.87;7.97;;;14.00;51.90;15.10;100252.00;;;;5070298;28;20166;-40
2022/12/12 02:37:21;;;;;;;8.60;7.80;;;14.00;51.90;15.10;100252.00;;;;5036623;28;20687;-42
2022/12/12 02:40:06;;;;;;;8.70;7.90;;;14.00;52.00;15.10;100257.00;;;;5052544;28;20281;-41
2022/12/12 02:42:54;;;;;;;8.83;7.93;;;14.00;52.00;15.10;100253.00;;;;5070434;28;20169;-43
2022/12/12 02:45:33;;;;;;;7.93;7.23;;;14.00;52.00;15.10;100269.00;;;;5046976;28;20162;-41
2022/12/12 02:48:14;;;;;;;8.43;7.63;;;13.90;52.00;15.10;100229.00;;;;5041093;28;20622;-40
2022/12/12 02:50:41;;;;;;;8.90;8.00;;;13.90;51.90;15.00;100259.00;;;;5039842;28;20158;-42
2022/12/12 02:53:07;;;;;;;9.10;8.20;;;13.90;52.00;15.00;100260.00;;;;5052400;28;20166;-40
2022/12/12 02:55:32;;;;;;;8.60;7.80;;;13.90;52.00;15.00;100257.00;;;;5052408;28;20181;-42
2022/12/12 02:57:58;;;;;;;8.80;8.00;;;13.90;52.00;15.00;100254.00;;;;5070160;28;20178;-40
2022/12/12 03:00:24;;;;;;;8.93;8.03;;;13.90;52.00;15.00;100261.00;;;;5052413;28;20173;-41
2022/12/12 03:10:12;;;;;;;8.03;7.23;;;13.80;52.00;14.90;100239.00;;;;5042669;28;20189;-43
2022/12/12 03:13:01;;;;;;;8.10;7.30;;;13.80;52.00;14.90;100246.00;;;;5045273;28;20190;-41
2022/12/12 03:16:12;;;;;;;8.97;8.07;;;13.80;52.00;14.90;100254.00;;;;5059617;28;20193;-41
2022/12/12 03:18:50;;;;;;;9.13;8.23;;;13.80;52.10;14.80;100250.00;;;;5043715;28;20213;-41
2022/12/12 03:21:39;;;;;;;8.37;7.57;;;13.70;51.90;14.80;100236.00;;;;5068967;28;20188;-41
2022/12/12 03:24:18;;;;;;;8.13;7.33;;;13.70;51.90;14.80;100258.00;;;;5038934;28;20263;-42
2022/12/12 03:27:17;;;;;;;8.40;7.60;;;13.70;52.00;14.80;100248.00;;;;5020363;28;20587;-42
2022/12/12 03:29:47;;;;;;;8.70;7.90;;;13.70;52.00;14.80;100233.00;;;;5036343;28;20551;-41
2022/12/12 03:32:18;;;;;;;8.50;7.70;;;13.70;52.00;14.80;100251.00;;;;5051061;28;20227;-46
2022/12/12 03:34:53;;;;;;;8.70;7.90;;;13.70;52.00;14.80;100266.00;;;;5019201;28;20254;-41
2022/12/12 03:37:23;;;;;;;8.03;7.33;;;13.70;52.10;14.80;100262.00;;;;5051363;28;20169;-40
2022/12/12 03:40:14;;;;;;;8.23;7.43;;;13.60;52.00;14.80;100263.00;;;;5035434;28;20200;-42
2022/12/12 03:43:09;;;;;;;8.50;7.70;;;13.70;52.10;14.80;100242.00;;;;5019297;28;20190;-42
2022/12/12 03:45:54;;;;;;;7.90;7.10;;;13.60;52.00;14.70;100254.00;;;;5051303;28;20638;-42
2022/12/12 03:48:27;;;;;;;8.60;7.80;;;13.60;52.10;14.70;100256.00;;;;5051144;28;20194;-42
2022/12/12 03:50:59;;;;;;;8.80;7.90;;;13.60;52.10;14.70;100257.00;;;;5051735;28;20205;-43
2022/12/12 03:53:54;;;;;;;8.20;7.40;;;13.60;52.10;14.70;100236.00;;;;5052052;28;20154;-41
2022/12/12 03:56:46;;;;;;;8.50;7.67;;;13.60;52.10;14.70;100270.00;;;;5039358;28;20237;-42
2022/12/12 03:59:17;;;;;;;8.13;7.33;;;13.60;52.00;14.70;100259.00;;;;5050993;28;20238;-40
2022/12/12 04:01:54;;;;;;;8.47;7.67;;;13.50;51.90;14.60;100263.00;;;;5018852;28;20547;-42
2022/12/12 04:04:57;;;;;;;8.00;7.23;;;13.50;52.00;14.60;100272.00;;;;5035806;28;20571;-42
2022/12/12 04:07:28;;;;;;;8.30;7.50;;;13.50;52.10;14.60;100273.00;;;;5050133;28;20177;-42
2022/12/12 04:13:02;;;;;;;8.33;7.53;;;13.40;51.90;14.60;100273.00;;;;5068532;28;20181;-41
2022/12/12 04:15:56;;;;;;;8.63;7.83;;;13.50;51.90;14.30;100276.00;;;;5053891;28;20615;-43
2022/12/12 04:18:54;;;;;;;8.63;7.70;;;13.40;51.80;14.60;100277.00;;;;5069028;28;20198;-41
2022/12/12 04:24:42;;;;;;;8.50;7.70;;;13.40;51.90;14.50;100283.00;;;;5068916;28;20279;-42
2022/12/12 04:27:23;;;;;;;8.20;7.40;;;13.40;51.90;14.50;100281.00;;;;5051905;28;20736;-42
2022/12/12 04:30:10;;;;;;;8.93;7.17;;;13.40;52.50;14.50;100288.00;;;;5035591;28;20521;-41
2022/12/12 04:32:47;;;;;;;10.10;7.47;;;13.40;52.80;14.50;100269.00;;;;5033933;28;20569;-41
2022/12/12 04:35:17;;;;;;;7.97;7.27;;;13.40;52.50;14.50;100279.00;;;;5051664;28;20181;-41
2022/12/12 04:37:47;;;;;;;7.43;6.63;;;13.40;52.30;14.50;100295.00;;;;5034108;28;20189;-40
2022/12/12 04:40:20;;;;;;;7.90;7.10;;;13.40;52.30;14.50;100292.00;;;;5050712;28;20190;-41
2022/12/12 04:42:59;;;;;;;7.90;6.93;;;13.40;52.20;14.50;100301.00;;;;5034670;28;20162;-41
2022/12/12 04:45:30;;;;;;;9.53;8.03;;;13.40;52.30;14.50;100280.00;;;;5052039;28;20189;-42
2022/12/12 04:47:55;;;;;;;8.47;7.57;;;13.30;52.10;14.40;100294.00;;;;5035761;28;20193;-41
2022/12/12 04:50:23;;;;;;;8.87;8.07;;;13.20;51.90;14.40;100301.00;;;;5034810;28;20173;-43
2022/12/12 04:52:48;;;;;;;8.70;7.80;;;13.20;52.00;14.40;100312.00;;;;5034885;28;20190;-41
2022/12/12 04:55:23;;;;;;;8.80;7.90;;;13.10;51.80;14.30;100290.00;;;;5051181;28;20231;-41
2022/12/12 04:57:52;;;;;;;9.10;8.20;;;13.10;51.70;14.30;100295.00;;;;5035825;28;20168;-41
2022/12/12 05:00:19;;;;;;;8.47;7.67;;;13.00;51.40;14.20;100283.00;;;;5051400;28;20162;-42
2022/12/12 05:03:00;;;;;;;9.97;8.50;;;13.00;51.40;14.20;100293.00;;;;5050872;28;20242;-41
2022/12/12 05:05:42;;;;;;;9.20;8.30;;;12.90;51.20;14.20;100302.00;;;;5051745;28;20169;-41
2022/12/12 05:08:16;;;;;;;9.07;8.17;;;12.90;51.20;14.10;100310.00;;;;5053042;28;20290;-42
2022/12/12 05:10:43;;;;;;;9.57;8.67;;;12.90;50.80;14.10;100303.00;;;;5035671;28;20162;-41
2022/12/12 05:13:21;;;;;;;8.50;7.70;;;12.90;50.60;14.10;100303.00;;;;5051033;28;20255;-41
2022/12/12 05:15:47;;;;;;;8.53;7.63;;;12.80;50.70;14.10;100308.00;;;;5069703;28;20158;-42
2022/12/12 05:18:13;;;;;;;8.53;7.70;;;12.80;50.40;14.00;100305.00;;;;5051620;28;20546;-40
2022/12/12 05:20:39;;;;;;;8.90;8.00;;;12.70;50.50;14.00;100298.00;;;;5053338;28;20324;-40
2022/12/12 05:23:04;;;;;;;7.70;7.00;;;12.70;50.60;14.00;100300.00;;;;5072618;28;20201;-42
2022/12/12 05:25:30;;;;;;;8.63;7.13;;;12.80;50.40;14.00;100307.00;;;;5076800;28;20197;-40
2022/12/12 05:27:56;;;;;;;8.00;7.20;;;12.80;50.40;14.00;100317.00;;;;5072346;28;20197;-41
2022/12/12 05:30:22;;;;;;;7.90;7.20;;;12.80;50.40;14.00;100306.00;;;;5069325;28;20166;-42
2022/12/12 05:32:48;;;;;;;7.90;7.10;;;12.80;50.70;14.00;100311.00;;;;5069215;28;20247;-41
2022/12/12 05:35:14;;;;;;;8.10;7.27;;;12.90;50.90;14.00;100318.00;;;;5068778;28;20177;-40
2022/12/12 05:37:39;;;;;;;7.53;6.83;;;12.90;50.90;14.00;100306.00;;;;5050815;28;20219;-41
2022/12/12 05:40:07;;;;;;;7.60;6.80;;;12.80;50.80;14.00;100313.00;;;;5068407;28;20484;-41
2022/12/12 05:42:32;;;;;;;7.20;6.47;;;12.80;50.80;14.00;100311.00;;;;5068753;28;20174;-42
2022/12/12 05:44:58;;;;;;;7.90;6.80;;;12.80;50.80;14.00;100317.00;;;;5072225;28;20458;-42
2022/12/12 05:47:24;;;;;;;7.63;6.70;;;12.90;51.00;14.00;100326.00;;;;5072345;28;20170;-41
2022/12/12 05:49:50;;;;;;;8.73;6.30;;;12.80;51.00;14.00;100318.00;;;;5072419;28;20219;-42
2022/12/12 05:52:15;;;;;;;8.43;6.30;;;12.80;51.10;14.00;100311.00;;;;5072231;28;20170;-42
2022/12/12 05:54:41;;;;;;;8.23;6.57;;;12.80;51.20;14.00;100317.00;;;;5071919;28;20173;-41
2022/12/12 05:57:08;;;;;;;8.20;6.50;;;12.80;51.20;14.00;100320.00;;;;5069059;28;20181;-41
2022/12/12 05:59:33;;;;;;;10.17;6.63;;;12.80;51.50;13.90;100317.00;;;;5054439;28;20700;-41
2022/12/12 06:01:59;;;;;;;10.83;6.30;;;12.80;51.50;13.90;100316.00;;;;5071436;28;20353;-42
2022/12/12 06:04:25;;;;;;;11.10;6.27;;;12.80;51.40;13.90;100330.00;;;;5072033;28;20181;-43
2022/12/12 06:06:51;;;;;;;11.97;6.97;;;12.80;51.40;13.90;100319.00;;;;5072141;28;20158;-41
2022/12/12 06:09:16;;;;;;;9.90;6.20;;;12.80;52.10;13.90;100330.00;;;;5072028;28;20210;-42
2022/12/12 06:11:42;;;;;;;8.53;5.90;;;12.80;52.10;14.00;100325.00;;;;5072282;28;20654;-42
2022/12/12 06:14:08;;;;;;;10.20;5.83;;;12.90;52.10;13.90;100331.00;;;;5072362;28;20166;-42
2022/12/12 06:16:35;;;;;;;9.90;6.10;;;12.90;52.10;13.90;100326.00;;;;5072748;28;20548;-41
2022/12/12 06:19:01;;;;;;;13.63;6.00;;;12.90;52.00;14.00;100335.00;;;;5074677;28;20196;-41
2022/12/12 06:21:27;;;;;;;9.00;5.80;;;12.90;52.30;14.00;100326.00;;;;5054178;28;20165;-41
2022/12/12 06:23:52;;;;;;;8.63;5.50;;;13.10;52.30;14.10;100335.00;;;;5071653;28;20210;-38
2022/12/12 06:26:18;;;;;;;9.33;5.23;;;13.20;52.20;14.10;100332.00;;;;5071791;28;20216;-41
2022/12/12 06:28:44;;;;;;;7.17;5.30;;;13.30;52.10;14.20;100326.00;;;;5071779;28;20185;-41
2022/12/12 06:31:10;;;;;;;8.13;5.33;;;13.50;51.90;14.30;100334.00;;;;5053983;28;20174;-41
2022/12/12 06:33:37;;;;;;;7.50;5.20;;;13.60;51.80;14.30;100345.00;;;;5053991;28;20170;-41
2022/12/12 06:36:22;;;;;;;6.83;4.60;;;13.80;51.60;14.40;100340.00;;;;5072093;28;20247;-42
2022/12/12 06:38:52;;;;;;;7.23;5.27;;;14.00;51.60;14.50;100341.00;;;;5054914;28;20324;-42
2022/12/12 06:41:21;;;;;;;6.87;5.00;;;14.10;51.30;14.60;100341.00;;;;5070945;28;20249;-41
2022/12/12 06:43:47;;;;;;;9.37;4.70;;;14.30;51.30;14.70;100339.00;;;;5053761;28;20567;-41
2022/12/12 06:46:18;;;;;;;6.17;4.73;;;14.40;51.00;14.80;100339.00;;;;5071186;28;20173;-41
2022/12/12 06:48:45;;;;;;;10.57;5.00;;;14.60;50.90;14.90;100350.00;;;;5070868;28;20186;-41
2022/12/12 06:51:14;;;;;;;7.83;4.67;;;14.80;50.90;15.10;100353.00;;;;5071361;28;20162;-40
2022/12/12 06:53:40;;;;;;;7.57;4.60;;;14.90;50.70;15.20;100354.00;;;;5053325;28;20182;-40
2022/12/12 06:56:08;;;;;;;8.00;4.57;;;15.00;50.60;15.30;100355.00;;;;5070964;28;20299;-40
2022/12/12 06:58:34;;;;;;;4.97;4.40;;;15.20;50.60;15.40;100360.00;;;;5053617;28;20242;-41
2022/12/12 07:01:00;;;;;;;6.17;4.13;;;15.30;50.60;15.50;100357.00;;;;5053491;28;20169;-41
2022/12/12 07:03:25;;;;;;;5.73;4.10;;;15.40;50.50;15.60;100357.00;;;;5070644;28;20189;-41
2022/12/12 07:05:51;;;;;;;6.00;4.20;;;15.50;50.50;15.70;100365.00;;;;5071364;28;20165;-41
2022/12/12 07:08:17;;;;;;;6.53;4.00;;;15.50;50.40;15.70;100360.00;;;;5071217;28;20586;-41
2022/12/12 07:10:43;;;;;;;4.70;4.10;;;15.50;50.50;15.50;100367.00;;;;5070464;28;20360;-41
2022/12/12 07:13:09;;;;;;;7.07;4.10;;;15.60;50.60;15.90;100362.00;;;;5070763;28;20181;-41
2022/12/12 07:15:44;;;;;;;5.80;3.97;;;15.60;50.60;15.90;100363.00;;;;5070794;28;20165;-42
2022/12/12 07:18:09;;;;;;;5.97;3.90;;;15.60;50.60;16.00;100344.00;;;;5070302;28;20189;-41
2022/12/12 07:20:39;;;;;;;4.27;3.80;;;15.70;50.70;16.00;100366.00;;;;5053223;28;20259;-42
2022/12/12 07:23:05;;;;;;;4.00;3.60;;;15.70;50.70;16.00;100369.00;;;;5070444;28;20213;-42
2022/12/12 07:25:31;;;;;;;4.77;3.87;;;15.70;50.80;16.10;100376.00;;;;5070351;28;20181;-42
2022/12/12 07:27:56;;;;;;;4.90;3.63;;;15.70;50.80;16.10;100375.00;;;;5070109;28;20166;-41
2022/12/12 07:30:22;;;;;;;5.20;3.83;;;15.70;51.00;16.10;100375.00;;;;5070583;28;20174;-42
2022/12/12 07:32:49;;;;;;;6.50;3.80;;;15.70;51.00;16.10;100374.00;;;;5069639;28;20220;-41
2022/12/12 07:35:15;;;;;;;4.83;3.60;;;15.70;51.00;16.10;100384.00;;;;5052917;28;20177;-41
2022/12/12 07:37:41;;;;;;;3.43;3.13;;;15.70;51.00;16.20;100373.00;;;;5070602;28;20174;-41
2022/12/12 07:40:07;;;;;;;4.40;3.13;;;15.70;51.00;16.20;100371.00;;;;5070035;28;20194;-43
2022/12/12 07:42:33;;;;;;;6.87;3.70;;;15.70;51.00;16.20;100377.00;;;;5069644;28;20642;-42
2022/12/12 07:44:59;;;;;;;4.13;3.73;;;15.70;51.00;16.20;100387.00;;;;5070168;28;20200;-42
2022/12/12 07:47:24;;;;;;;3.30;3.03;;;15.70;51.20;16.30;100383.00;;;;5071396;28;20211;-41
2022/12/12 07:49:50;;;;;;;4.87;3.30;;;15.70;51.20;16.20;100376.00;;;;5069438;28;20247;-42
2022/12/12 07:52:16;;;;;;;5.53;3.40;;;15.70;51.30;16.20;100388.00;;;;5051461;28;20638;-41
2022/12/12 07:54:41;;;;;;;3.90;3.37;;;15.70;51.40;16.30;100380.00;;;;5069598;28;20696;-42
2022/12/12 07:57:08;;;;;;;5.03;3.47;;;15.70;51.40;16.30;100391.00;;;;5069715;28;20173;-42
2022/12/12 07:59:34;;;;;;;4.27;3.50;;;15.80;51.40;16.30;100390.00;;;;5069330;28;20330;-42
2022/12/12 08:02:00;;;;;;;4.10;3.27;;;15.80;51.30;16.30;100392.00;;;;5072401;28;20538;-41
2022/12/12 08:04:25;;;;;;;4.97;3.40;;;15.80;51.30;16.30;100389.00;;;;5076979;28;20196;-41
2022/12/12 08:06:51;;;;;;;3.77;3.30;;;15.80;51.30;16.30;100396.00;;;;5071665;28;20170;-42
2022/12/12 08:09:17;;;;;;;5.20;3.63;;;15.70;51.30;16.40;100392.00;;;;5069636;28;20563;-42
2022/12/12 08:11:42;;;;;;;4.97;3.33;;;15.80;51.40;16.40;100397.00;;;;5069068;28;20178;-42
2022/12/12 08:14:08;;;;;;;4.37;3.30;;;15.80;51.30;16.40;100400.00;;;;5069198;28;20161;-42
2022/12/12 08:16:34;;;;;;;3.50;3.20;;;15.90;51.30;16.40;100393.00;;;;5069102;28;20265;-42
2022/12/12 08:19:00;;;;;;;4.03;3.20;;;15.90;51.30;16.40;100400.00;;;;5069260;28;20200;-41
2022/12/12 08:21:26;;;;;;;6.87;3.67;;;15.80;51.30;16.40;100408.00;;;;5069105;28;20212;-41
2022/12/12 08:23:55;;;;;;;4.23;3.13;;;15.90;51.40;16.40;100407.00;;;;5069152;28;20214;-41
2022/12/12 08:26:21;;;;;;;4.00;3.50;;;15.80;51.40;16.40;100402.00;;;;5064840;28;20763;-41
2022/12/12 08:28:50;;;;;;;3.50;3.20;;;15.80;51.50;16.40;100406.00;;;;5049376;28;20270;-41
2022/12/12 08:31:16;;;;;;;3.83;3.20;;;15.80;51.60;16.40;100406.00;;;;5057315;28;20545;-41
2022/12/12 08:33:42;;;;;;;3.50;3.20;;;15.80;51.60;16.40;100424.00;;;;5068077;28;20603;-41
2022/12/12 08:36:18;;;;;;;3.90;3.27;;;15.90;51.60;16.50;100423.00;;;;5068974;28;20252;-42
2022/12/12 08:38:44;;;;;;;3.03;2.80;;;15.90;51.50;16.50;100418.00;;;;5051459;28;20181;-41
2022/12/12 08:41:11;;;;;;;3.40;3.10;;;15.90;51.50;16.50;100428.00;;;;5069105;28;20178;-43
2022/12/12 08:43:37;;;;;;;3.40;2.80;;;15.90;51.50;16.50;100417.00;;;;5068038;28;20303;-40
2022/12/12 08:46:04;;;;;;;3.17;2.87;;;15.90;51.60;16.50;100426.00;;;;5050984;28;20169;-41
2022/12/12 08:48:30;;;;;;;3.73;3.33;;;15.90;51.60;16.20;100432.00;;;;5050807;28;20185;-42
2022/12/12 08:50:56;;;;;;;3.30;3.00;;;15.80;51.70;16.50;100432.00;;;;5068301;28;20341;-41
2022/12/12 08:53:23;;;;;;;6.67;3.10;;;15.80;51.70;16.50;100428.00;;;;5067228;28;20180;-41
2022/12/12 08:55:48;;;;;;;3.53;2.87;;;15.80;52.10;16.50;100434.00;;;;5049390;28;20277;-41
2022/12/12 08:58:14;;;;;;;3.10;2.90;;;15.80;52.00;16.50;100430.00;;;;5067197;28;20275;-41
2022/12/12 09:00:40;;;;;;;3.70;2.93;;;15.90;51.90;16.50;100439.00;;;;5067293;28;20679;-41
2022/12/12 09:03:06;;;;;;;3.23;2.93;;;15.90;51.90;16.50;100438.00;;;;5066835;28;20223;-42
2022/12/12 09:05:31;;;;;;;3.60;3.30;;;15.90;52.10;16.50;100433.00;;;;5067166;28;20154;-43
2022/12/12 09:07:58;;;;;;;5.63;3.40;;;15.90;52.20;16.50;100442.00;;;;5067372;28;20646;-41
2022/12/12 09:10:25;;;;;;;4.20;3.07;;;15.90;52.20;16.50;100438.00;;;;5069363;28;20249;-41
2022/12/12 09:12:51;;;;;;;3.30;3.00;;;16.00;52.20;16.50;100434.00;;;;5068254;28;20215;-41
2022/12/12 09:15:16;;;;;;;3.93;3.17;;;15.90;52.70;16.50;100436.00;;;;5068648;28;20178;-41
2022/12/12 09:17:42;;;;;;;3.73;3.10;;;15.90;52.10;16.50;100436.00;;;;5068963;28;20185;-42
2022/12/12 09:20:09;;;;;;;3.43;3.13;;;15.90;52.10;16.50;100442.00;;;;5072904;28;20760;-42
2022/12/12 09:22:34;;;;;;;4.50;3.00;;;15.90;52.20;16.50;100448.00;;;;5072817;28;20170;-40
2022/12/12 09:25:00;;;;;;;4.20;2.90;;;15.90;52.20;16.50;100444.00;;;;5073123;28;20246;-43
2022/12/12 09:27:26;;;;;;;4.70;3.17;;;15.90;52.20;16.50;100449.00;;;;5071883;28;20181;-41
2022/12/12 09:29:52;;;;;;;6.23;3.00;;;15.90;52.20;16.60;100447.00;;;;5072509;28;20198;-42
2022/12/12 09:32:17;;;;;;;7.77;3.20;;;15.90;52.80;16.60;100448.00;;;;5073175;28;20172;-42
2022/12/12 09:34:43;;;;;;;4.47;3.00;;;15.90;52.60;16.50;100448.00;;;;5054559;28;20650;-41
2022/12/12 09:37:09;;;;;;;4.53;3.40;;;15.90;52.70;16.50;100449.00;;;;5071126;28;20181;-42
2022/12/12 09:39:35;;;;;;;4.97;3.10;;;15.90;52.60;16.60;100453.00;;;;5044287;28;20206;-42
2022/12/12 09:42:29;;;;;;;4.23;2.90;;;15.90;52.60;16.60;100449.00;;;;5050859;28;20783;-42
2022/12/12 09:45:01;;;;;;;4.43;3.00;;;16.00;52.70;16.60;100453.00;;;;5036431;28;20679;-42
2022/12/12 09:47:48;;;;;;;4.10;3.10;;;15.90;52.60;16.60;100446.00;;;;5035972;28;20166;-41
2022/12/12 09:50:20;;;;;;;3.60;2.83;;;15.90;52.60;16.60;100444.00;;;;5018590;28;20244;-42
2022/12/12 09:52:46;;;;;;;3.07;2.83;;;16.00;52.60;16.60;100439.00;;;;5036356;28;20270;-41
2022/12/12 09:55:32;;;;;;;3.77;2.80;;;16.00;52.60;16.60;100446.00;;;;5053480;28;20277;-42
2022/12/12 09:58:23;;;;;;;3.73;3.10;;;16.00;52.50;16.30;100438.00;;;;5037163;28;20185;-41
2022/12/12 10:01:13;;;;;;;5.87;2.90;;;16.00;52.50;16.60;100455.00;;;;5022382;28;20171;-42
2022/12/12 10:03:48;;;;;;;3.33;3.00;;;16.00;52.60;16.60;100460.00;;;;5019136;28;20529;-41
2022/12/12 10:06:14;;;;;;;3.37;2.90;;;16.00;52.60;16.60;100459.00;;;;5033740;28;20154;-41
2022/12/12 10:09:11;;;;;;;3.40;2.77;;;16.00;52.60;16.60;100458.00;;;;5033476;28;20201;-42
2022/12/12 10:11:51;;;;;;;3.50;3.20;;;16.00;52.50;16.60;100454.00;;;;5033954;28;20163;-42
2022/12/12 10:14:25;;;;;;;4.73;3.10;;;16.10;52.60;16.60;100456.00;;;;5036692;28;20808;-41
2022/12/12 10:16:50;;;;;;;3.77;3.20;;;16.00;52.60;16.60;100454.00;;;;5018957;28;20221;-41
2022/12/12 10:19:28;;;;;;;3.30;3.00;;;16.00;52.60;16.60;100429.00;;;;5034299;28;20228;-41
2022/12/12 10:21:57;;;;;;;8.17;3.47;;;16.00;52.70;16.60;100461.00;;;;5018840;28;20177;-41
2022/12/12 10:24:47;;;;;;;5.33;3.30;;;15.90;52.70;16.60;100436.00;;;;5034181;28;20570;-41
2022/12/12 10:27:13;;;;;;;7.73;4.03;;;15.90;53.00;16.60;100454.00;;;;5018571;28;20155;-41
2022/12/12 10:29:48;;;;;;;6.80;3.53;;;16.00;52.90;16.60;100450.00;;;;5051107;28;20265;-41
2022/12/12 10:32:33;;;;;;;6.43;4.27;;;16.00;52.70;16.60;100441.00;;;;5051349;28;20511;-41
2022/12/12 10:35:27;;;;;;;7.43;3.70;;;16.00;52.70;16.60;100436.00;;;;5020080;28;20170;-41
2022/12/12 10:38:24;;;;;;;5.90;3.40;;;16.00;53.00;16.60;100443.00;;;;5036842;28;20543;-41
2022/12/12 10:41:09;;;;;;;8.00;3.40;;;16.10;53.50;16.60;100439.00;;;;5037535;28;20165;-43
2022/12/12 10:44:08;;;;;;;7.67;3.90;;;16.10;53.30;16.60;100434.00;;;;5033814;28;20196;-40
2022/12/12 10:47:03;;;;;;;6.87;3.43;;;16.10;53.30;16.60;100430.00;;;;5038837;28;20666;-41
2022/12/12 10:49:29;;;;;;;4.53;3.53;;;16.10;53.20;16.70;100444.00;;;;5035176;28;20197;-41
2022/12/12 10:51:55;;;;;;;6.20;3.40;;;16.10;53.10;16.70;100427.00;;;;5033760;28;20174;-41
2022/12/12 10:54:23;;;;;;;4.70;3.50;;;16.00;53.00;16.60;100427.00;;;;5034285;28;20226;-42
2022/12/12 10:57:20;;;;;;;5.37;3.50;;;16.00;53.00;16.70;100428.00;;;;5033818;28;20590;-42
2022/12/12 10:59:49;;;;;;;4.13;3.30;;;16.00;53.10;16.60;100422.00;;;;5034053;28;20623;-41
2022/12/12 11:02:26;;;;;;;5.03;3.57;;;16.00;53.20;16.60;100419.00;;;;5051576;28;20532;-41
2022/12/12 11:05:19;;;;;;;5.03;3.17;;;15.90;53.20;16.60;100422.00;;;;5051694;28;20190;-41
2022/12/12 11:07:49;;;;;;;4.00;3.30;;;16.00;53.10;16.60;100418.00;;;;5033931;28;20147;-41
2022/12/12 11:10:22;;;;;;;5.30;3.30;;;15.90;53.10;16.60;100425.00;;;;5016824;28;20186;-41
2022/12/12 11:13:15;;;;;;;7.27;3.70;;;15.90;53.30;16.60;100418.00;;;;5033638;28;20170;-43
2022/12/12 11:16:11;;;;;;;6.20;3.10;;;16.00;53.50;16.70;100414.00;;;;5044985;28;20198;-43
2022/12/12 11:18:37;;;;;;;6.37;3.60;;;16.10;53.60;16.70;100420.00;;;;5050938;28;20194;-43
2022/12/12 11:21:07;;;;;;;4.77;3.10;;;16.00;53.60;16.70;100415.00;;;;5033687;28;20170;-41